sensor_id;sensor_type;location;lat;lon;timestamp;pressure;altitude;pressure_sealevel;temperature;humidity
55990;BME280;41875;55.806;38.082;2023-04-29T00:00:13;99082.34;;;6.17;78.91
55990;BME280;41875;55.806;38.082;2023-04-29T00:02:41;99105.88;;;5.79;80.16
55990;BME280;41875;55.806;38.082;2023-04-29T00:05:10;99086.63;;;5.59;80.96
55990;BME280;41875;55.806;38.082;2023-04-29T00:07:41;99087.19;;;5.63;80.37
55990;BME280;41875;55.806;38.082;2023-04-29T00:10:12;99079.66;;;5.19;80.96
55990;BME280;41875;55.806;38.082;2023-04-29T00:12:41;99083.84;;;5.51;81.21
55990;BME280;41875;55.806;38.082;2023-04-29T00:15:13;99062.00;;;5.60;80.23
55990;BME280;41875;55.806;38.082;2023-04-29T00:17:41;99059.91;;;5.93;79.26
55990;BME280;41875;55.806;38.082;2023-04-29T00:20:13;99057.75;;;5.59;80.79
55990;BME280;41875;55.806;38.082;2023-04-29T00:22:43;99068.09;;;5.80;80.28
55990;BME280;41875;55.806;38.082;2023-04-29T00:25:14;99059.66;;;5.57;80.47
55990;BME280;41875;55.806;38.082;2023-04-29T00:27:43;99071.81;;;5.39;80.69
55990;BME280;41875;55.806;38.082;2023-04-29T00:30:11;99057.84;;;5.38;80.68
55990;BME280;41875;55.806;38.082;2023-04-29T00:32:39;99053.66;;;5.16;81.51
55990;BME280;41875;55.806;38.082;2023-04-29T00:35:09;99040.00;;;5.22;80.90
55990;BME280;41875;55.806;38.082;2023-04-29T00:38:02;99042.75;;;5.30;80.04
55990;BME280;41875;55.806;38.082;2023-04-29T00:40:30;99050.06;;;4.97;80.69
55990;BME280;41875;55.806;38.082;2023-04-29T00:42:58;99072.56;;;5.00;80.51
55990;BME280;41875;55.806;38.082;2023-04-29T00:45:27;99067.06;;;5.03;80.28
55990;BME280;41875;55.806;38.082;2023-04-29T00:47:55;99060.28;;;5.10;80.23
55990;BME280;41875;55.806;38.082;2023-04-29T00:50:24;99036.88;;;4.78;80.77
55990;BME280;41875;55.806;38.082;2023-04-29T00:52:53;99056.09;;;4.88;80.63
55990;BME280;41875;55.806;38.082;2023-04-29T00:55:24;99016.00;;;4.35;82.25
55990;BME280;41875;55.806;38.082;2023-04-29T00:57:54;99046.50;;;4.36;82.92
55990;BME280;41875;55.806;38.082;2023-04-29T01:00:22;98989.41;;;4.50;82.54
55990;BME280;41875;55.806;38.082;2023-04-29T01:02:52;99004.63;;;4.56;81.92
55990;BME280;41875;55.806;38.082;2023-04-29T01:05:23;99028.50;;;4.53;81.26
55990;BME280;41875;55.806;38.082;2023-04-29T01:07:54;99022.69;;;4.49;81.69
55990;BME280;41875;55.806;38.082;2023-04-29T01:10:27;99041.41;;;4.76;80.62
55990;BME280;41875;55.806;38.082;2023-04-29T01:12:57;99044.97;;;4.65;80.70
55990;BME280;41875;55.806;38.082;2023-04-29T01:15:32;99070.84;;;4.48;81.42
55990;BME280;41875;55.806;38.082;2023-04-29T01:18:04;99050.59;;;5.01;80.19
55990;BME280;41875;55.806;38.082;2023-04-29T01:20:33;99067.53;;;4.87;80.00
55990;BME280;41875;55.806;38.082;2023-04-29T01:23:03;99066.00;;;5.25;78.88
55990;BME280;41875;55.806;38.082;2023-04-29T01:25:34;99071.06;;;5.07;79.10
55990;BME280;41875;55.806;38.082;2023-04-29T01:28:17;99070.38;;;5.05;79.89
55990;BME280;41875;55.806;38.082;2023-04-29T01:30:49;99070.47;;;4.94;79.95
55990;BME280;41875;55.806;38.082;2023-04-29T01:33:22;99072.78;;;4.87;79.90
55990;BME280;41875;55.806;38.082;2023-04-29T01:35:55;99068.00;;;4.61;80.35
55990;BME280;41875;55.806;38.082;2023-04-29T01:38:29;99066.53;;;4.68;80.48
55990;BME280;41875;55.806;38.082;2023-04-29T01:41:05;99070.50;;;4.63;80.23
55990;BME280;41875;55.806;38.082;2023-04-29T01:43:37;99082.22;;;4.58;80.33
55990;BME280;41875;55.806;38.082;2023-04-29T01:46:16;99071.03;;;4.56;79.97
55990;BME280;41875;55.806;38.082;2023-04-29T01:48:46;99085.16;;;4.13;81.24
55990;BME280;41875;55.806;38.082;2023-04-29T01:51:15;99085.91;;;4.04;81.47
55990;BME280;41875;55.806;38.082;2023-04-29T01:53:43;99079.22;;;4.11;80.03
55990;BME280;41875;55.806;38.082;2023-04-29T01:56:12;99078.81;;;3.94;81.09
55990;BME280;41875;55.806;38.082;2023-04-29T01:58:46;99091.94;;;3.94;80.45
55990;BME280;41875;55.806;38.082;2023-04-29T02:01:34;99097.41;;;4.34;78.32
55990;BME280;41875;55.806;38.082;2023-04-29T02:04:03;99089.69;;;4.11;79.48
55990;BME280;41875;55.806;38.082;2023-04-29T02:06:32;99088.81;;;4.22;78.72
55990;BME280;41875;55.806;38.082;2023-04-29T02:09:03;99099.72;;;4.06;79.58
55990;BME280;41875;55.806;38.082;2023-04-29T02:11:34;99098.06;;;4.05;79.22
55990;BME280;41875;55.806;38.082;2023-04-29T02:14:02;99098.59;;;3.99;78.98
55990;BME280;41875;55.806;38.082;2023-04-29T02:16:31;99084.63;;;3.98;78.95
55990;BME280;41875;55.806;38.082;2023-04-29T02:19:05;99076.81;;;3.65;80.82
55990;BME280;41875;55.806;38.082;2023-04-29T02:21:37;99085.09;;;4.03;79.38
55990;BME280;41875;55.806;38.082;2023-04-29T02:24:06;99076.66;;;4.00;79.06
55990;BME280;41875;55.806;38.082;2023-04-29T02:26:35;99066.34;;;3.87;79.20
55990;BME280;41875;55.806;38.082;2023-04-29T02:29:04;99072.06;;;4.13;78.76
55990;BME280;41875;55.806;38.082;2023-04-29T02:31:32;99086.38;;;4.09;78.71
55990;BME280;41875;55.806;38.082;2023-04-29T02:34:02;99092.19;;;4.12;78.86
55990;BME280;41875;55.806;38.082;2023-04-29T02:36:33;99102.56;;;4.14;78.63
55990;BME280;41875;55.806;38.082;2023-04-29T02:39:01;99102.66;;;4.12;78.10
55990;BME280;41875;55.806;38.082;2023-04-29T02:41:29;99114.25;;;4.31;77.46
55990;BME280;41875;55.806;38.082;2023-04-29T02:43:58;99106.38;;;4.31;77.19
55990;BME280;41875;55.806;38.082;2023-04-29T02:46:27;99110.09;;;4.07;78.04
55990;BME280;41875;55.806;38.082;2023-04-29T02:48:55;99108.81;;;4.23;76.96
55990;BME280;41875;55.806;38.082;2023-04-29T02:51:23;99112.91;;;4.16;76.95
55990;BME280;41875;55.806;38.082;2023-04-29T02:53:52;99132.06;;;4.16;77.54
55990;BME280;41875;55.806;38.082;2023-04-29T02:56:21;99137.06;;;4.19;76.63
55990;BME280;41875;55.806;38.082;2023-04-29T02:58:49;99142.91;;;4.23;76.50
55990;BME280;41875;55.806;38.082;2023-04-29T03:01:18;99145.06;;;4.18;76.78
55990;BME280;41875;55.806;38.082;2023-04-29T03:03:47;99145.63;;;4.00;76.90
55990;BME280;41875;55.806;38.082;2023-04-29T03:06:16;99157.50;;;3.72;77.50
55990;BME280;41875;55.806;38.082;2023-04-29T03:08:44;99160.88;;;3.95;76.40
55990;BME280;41875;55.806;38.082;2023-04-29T03:11:13;99162.78;;;4.04;75.32
55990;BME280;41875;55.806;38.082;2023-04-29T03:13:41;99166.97;;;3.95;75.56
55990;BME280;41875;55.806;38.082;2023-04-29T03:16:09;99178.72;;;3.69;75.77
55990;BME280;41875;55.806;38.082;2023-04-29T03:18:40;99181.75;;;3.96;74.97
55990;BME280;41875;55.806;38.082;2023-04-29T03:21:09;99178.50;;;4.04;74.19
55990;BME280;41875;55.806;38.082;2023-04-29T03:23:37;99188.06;;;3.50;75.90
55990;BME280;41875;55.806;38.082;2023-04-29T03:26:08;99191.63;;;3.49;76.27
55990;BME280;41875;55.806;38.082;2023-04-29T03:28:37;99196.72;;;3.50;75.10
55990;BME280;41875;55.806;38.082;2023-04-29T03:31:05;99194.72;;;3.31;75.91
55990;BME280;41875;55.806;38.082;2023-04-29T03:33:33;99186.91;;;3.09;76.21
55990;BME280;41875;55.806;38.082;2023-04-29T03:36:03;99189.97;;;3.14;76.00
55990;BME280;41875;55.806;38.082;2023-04-29T03:38:50;99196.19;;;3.24;75.17
55990;BME280;41875;55.806;38.082;2023-04-29T03:41:18;99192.94;;;3.20;75.30
55990;BME280;41875;55.806;38.082;2023-04-29T03:43:46;99186.50;;;3.36;74.75
55990;BME280;41875;55.806;38.082;2023-04-29T03:46:15;99192.38;;;3.17;74.80
55990;BME280;41875;55.806;38.082;2023-04-29T03:48:43;99196.03;;;3.03;75.52
55990;BME280;41875;55.806;38.082;2023-04-29T03:51:13;99185.97;;;3.10;75.27
55990;BME280;41875;55.806;38.082;2023-04-29T03:53:42;99199.13;;;3.08;75.34
55990;BME280;41875;55.806;38.082;2023-04-29T03:56:10;99192.59;;;3.02;75.52
55990;BME280;41875;55.806;38.082;2023-04-29T03:58:39;99203.28;;;2.99;75.42
55990;BME280;41875;55.806;38.082;2023-04-29T04:01:07;99203.28;;;2.77;76.41
55990;BME280;41875;55.806;38.082;2023-04-29T04:03:42;99201.97;;;2.71;76.55
55990;BME280;41875;55.806;38.082;2023-04-29T04:06:10;99201.25;;;2.80;76.45
55990;BME280;41875;55.806;38.082;2023-04-29T04:08:40;99210.72;;;2.58;76.80
55990;BME280;41875;55.806;38.082;2023-04-29T04:11:14;99214.97;;;2.48;77.66
55990;BME280;41875;55.806;38.082;2023-04-29T04:14:01;99210.31;;;2.40;77.85
55990;BME280;41875;55.806;38.082;2023-04-29T04:16:30;99214.28;;;2.57;77.26
55990;BME280;41875;55.806;38.082;2023-04-29T04:18:59;99211.19;;;2.52;77.38
55990;BME280;41875;55.806;38.082;2023-04-29T04:21:28;99218.00;;;2.66;76.98
55990;BME280;41875;55.806;38.082;2023-04-29T04:24:04;99215.06;;;2.71;76.83
55990;BME280;41875;55.806;38.082;2023-04-29T04:26:33;99209.34;;;2.77;76.12
55990;BME280;41875;55.806;38.082;2023-04-29T04:29:10;99217.31;;;2.64;77.00
55990;BME280;41875;55.806;38.082;2023-04-29T04:31:52;99221.56;;;2.65;76.90
55990;BME280;41875;55.806;38.082;2023-04-29T04:34:21;99221.22;;;2.70;76.93
55990;BME280;41875;55.806;38.082;2023-04-29T04:36:51;99212.69;;;2.79;76.45
55990;BME280;41875;55.806;38.082;2023-04-29T04:39:22;99219.34;;;2.72;76.42
55990;BME280;41875;55.806;38.082;2023-04-29T04:41:53;99226.56;;;2.68;76.95
55990;BME280;41875;55.806;38.082;2023-04-29T04:44:22;99216.00;;;2.81;76.31
55990;BME280;41875;55.806;38.082;2023-04-29T04:47:08;99218.13;;;2.65;76.69
55990;BME280;41875;55.806;38.082;2023-04-29T04:49:53;99226.69;;;2.67;76.79
55990;BME280;41875;55.806;38.082;2023-04-29T04:52:22;99228.16;;;2.82;76.46
55990;BME280;41875;55.806;38.082;2023-04-29T04:55:03;99220.75;;;2.76;76.44
55990;BME280;41875;55.806;38.082;2023-04-29T04:57:36;99226.84;;;2.88;76.29
55990;BME280;41875;55.806;38.082;2023-04-29T05:00:04;99227.19;;;2.95;76.19
55990;BME280;41875;55.806;38.082;2023-04-29T05:02:33;99228.00;;;2.84;76.45
55990;BME280;41875;55.806;38.082;2023-04-29T05:05:02;99228.88;;;3.18;75.33
55990;BME280;41875;55.806;38.082;2023-04-29T05:07:33;99226.97;;;2.86;76.47
55990;BME280;41875;55.806;38.082;2023-04-29T05:10:05;99232.94;;;3.11;75.87
55990;BME280;41875;55.806;38.082;2023-04-29T05:12:42;99224.50;;;3.08;76.23
55990;BME280;41875;55.806;38.082;2023-04-29T05:15:10;99223.41;;;3.10;76.52
55990;BME280;41875;55.806;38.082;2023-04-29T05:17:42;99229.94;;;3.27;75.89
55990;BME280;41875;55.806;38.082;2023-04-29T05:20:11;99233.16;;;3.54;74.71
55990;BME280;41875;55.806;38.082;2023-04-29T05:22:39;99212.47;;;3.39;75.57
55990;BME280;41875;55.806;38.082;2023-04-29T05:25:09;99216.50;;;3.55;75.03
55990;BME280;41875;55.806;38.082;2023-04-29T05:27:37;99219.59;;;3.60;75.10
55990;BME280;41875;55.806;38.082;2023-04-29T05:30:10;99226.25;;;2.96;78.00
55990;BME280;41875;55.806;38.082;2023-04-29T05:32:38;99215.34;;;3.02;78.35
55990;BME280;41875;55.806;38.082;2023-04-29T05:35:12;99226.75;;;3.12;78.43
55990;BME280;41875;55.806;38.082;2023-04-29T05:37:40;99228.53;;;3.12;78.52
55990;BME280;41875;55.806;38.082;2023-04-29T05:40:30;99222.94;;;3.39;78.15
55990;BME280;41875;55.806;38.082;2023-04-29T05:43:15;99224.13;;;3.01;79.51
55990;BME280;41875;55.806;38.082;2023-04-29T05:45:45;99242.72;;;3.32;79.01
55990;BME280;41875;55.806;38.082;2023-04-29T05:48:13;99251.59;;;3.63;78.27
55990;BME280;41875;55.806;38.082;2023-04-29T05:50:43;99241.56;;;3.80;77.97
55990;BME280;41875;55.806;38.082;2023-04-29T05:53:18;99247.41;;;3.84;77.77
55990;BME280;41875;55.806;38.082;2023-04-29T05:55:48;99245.34;;;3.99;77.74
55990;BME280;41875;55.806;38.082;2023-04-29T05:58:19;99265.19;;;4.12;77.74
55990;BME280;41875;55.806;38.082;2023-04-29T06:00:48;99265.56;;;4.40;76.21
55990;BME280;41875;55.806;38.082;2023-04-29T06:03:20;99265.22;;;4.01;78.37
55990;BME280;41875;55.806;38.082;2023-04-29T06:06:09;99257.47;;;4.65;76.25
55990;BME280;41875;55.806;38.082;2023-04-29T06:08:45;99270.47;;;4.45;77.14
55990;BME280;41875;55.806;38.082;2023-04-29T06:11:19;99273.00;;;4.35;77.61
55990;BME280;41875;55.806;38.082;2023-04-29T06:13:52;99287.34;;;4.52;76.68
55990;BME280;41875;55.806;38.082;2023-04-29T06:16:23;99287.78;;;4.36;77.55
55990;BME280;41875;55.806;38.082;2023-04-29T06:18:55;99279.16;;;4.46;77.48
55990;BME280;41875;55.806;38.082;2023-04-29T06:21:23;99270.78;;;4.52;77.01
55990;BME280;41875;55.806;38.082;2023-04-29T06:23:51;99294.75;;;4.47;77.63
55990;BME280;41875;55.806;38.082;2023-04-29T06:26:22;99292.44;;;4.65;77.31
55990;BME280;41875;55.806;38.082;2023-04-29T06:28:50;99295.50;;;4.38;78.38
55990;BME280;41875;55.806;38.082;2023-04-29T06:31:20;99298.47;;;4.45;78.33
55990;BME280;41875;55.806;38.082;2023-04-29T06:33:52;99300.63;;;4.93;76.86
55990;BME280;41875;55.806;38.082;2023-04-29T06:36:23;99301.41;;;5.05;76.05
55990;BME280;41875;55.806;38.082;2023-04-29T06:39:12;99299.53;;;5.17;75.58
55990;BME280;41875;55.806;38.082;2023-04-29T06:42:03;99309.28;;;4.51;78.05
55990;BME280;41875;55.806;38.082;2023-04-29T06:44:41;99318.22;;;4.81;77.39
55990;BME280;41875;55.806;38.082;2023-04-29T06:47:34;99319.59;;;4.97;76.68
55990;BME280;41875;55.806;38.082;2023-04-29T06:50:06;99322.25;;;5.28;75.85
55990;BME280;41875;55.806;38.082;2023-04-29T06:52:45;99327.03;;;5.13;75.84
55990;BME280;41875;55.806;38.082;2023-04-29T06:55:15;99331.44;;;5.12;76.30
55990;BME280;41875;55.806;38.082;2023-04-29T06:57:45;99342.53;;;5.47;75.39
55990;BME280;41875;55.806;38.082;2023-04-29T07:00:13;99345.56;;;5.42;75.17
55990;BME280;41875;55.806;38.082;2023-04-29T07:02:42;99332.88;;;5.47;75.76
55990;BME280;41875;55.806;38.082;2023-04-29T07:05:10;99354.47;;;5.82;74.56
55990;BME280;41875;55.806;38.082;2023-04-29T07:07:38;99356.69;;;5.87;74.83
55990;BME280;41875;55.806;38.082;2023-04-29T07:10:07;99363.34;;;6.22;73.62
55990;BME280;41875;55.806;38.082;2023-04-29T07:12:35;99356.69;;;6.18;73.71
55990;BME280;41875;55.806;38.082;2023-04-29T07:15:07;99353.72;;;5.70;76.21
55990;BME280;41875;55.806;38.082;2023-04-29T07:17:38;99358.41;;;5.98;75.45
55990;BME280;41875;55.806;38.082;2023-04-29T07:20:07;99362.56;;;6.41;73.22
55990;BME280;41875;55.806;38.082;2023-04-29T07:22:36;99373.19;;;6.30;73.00
55990;BME280;41875;55.806;38.082;2023-04-29T07:25:07;99374.09;;;6.69;72.95
55990;BME280;41875;55.806;38.082;2023-04-29T07:27:36;99361.91;;;7.65;70.87
55990;BME280;41875;55.806;38.082;2023-04-29T07:30:08;99376.63;;;7.58;68.68
55990;BME280;41875;55.806;38.082;2023-04-29T07:32:39;99391.38;;;7.88;68.39
55990;BME280;41875;55.806;38.082;2023-04-29T07:35:08;99391.16;;;7.72;70.56
55990;BME280;41875;55.806;38.082;2023-04-29T07:37:38;99385.22;;;7.60;70.97
55990;BME280;41875;55.806;38.082;2023-04-29T07:40:12;99390.50;;;7.50;72.40
55990;BME280;41875;55.806;38.082;2023-04-29T07:42:44;99387.59;;;7.53;70.37
55990;BME280;41875;55.806;38.082;2023-04-29T07:45:14;99398.97;;;8.01;69.54
55990;BME280;41875;55.806;38.082;2023-04-29T07:47:42;99394.28;;;7.47;70.89
55990;BME280;41875;55.806;38.082;2023-04-29T07:50:11;99398.34;;;7.80;67.51
55990;BME280;41875;55.806;38.082;2023-04-29T07:52:42;99398.97;;;7.63;68.07
55990;BME280;41875;55.806;38.082;2023-04-29T07:55:10;99413.13;;;8.38;66.30
55990;BME280;41875;55.806;38.082;2023-04-29T07:57:39;99420.59;;;8.43;68.25
55990;BME280;41875;55.806;38.082;2023-04-29T08:00:10;99417.34;;;7.83;68.89
55990;BME280;41875;55.806;38.082;2023-04-29T08:02:43;99420.66;;;8.79;65.77
55990;BME280;41875;55.806;38.082;2023-04-29T08:05:28;99426.25;;;8.76;68.53
55990;BME280;41875;55.806;38.082;2023-04-29T08:07:57;99429.06;;;9.55;65.73
55990;BME280;41875;55.806;38.082;2023-04-29T08:10:25;99438.47;;;9.31;61.86
55990;BME280;41875;55.806;38.082;2023-04-29T08:12:54;99430.63;;;9.92;65.20
55990;BME280;41875;55.806;38.082;2023-04-29T08:15:22;99437.59;;;9.04;67.92
55990;BME280;41875;55.806;38.082;2023-04-29T08:17:52;99440.69;;;9.36;68.22
55990;BME280;41875;55.806;38.082;2023-04-29T08:20:22;99427.53;;;9.70;66.66
55990;BME280;41875;55.806;38.082;2023-04-29T08:22:50;99425.69;;;9.71;65.32
55990;BME280;41875;55.806;38.082;2023-04-29T08:25:18;99441.47;;;10.07;63.09
55990;BME280;41875;55.806;38.082;2023-04-29T08:27:47;99436.50;;;9.33;62.78
55990;BME280;41875;55.806;38.082;2023-04-29T08:30:16;99440.09;;;9.95;62.14
55990;BME280;41875;55.806;38.082;2023-04-29T08:32:44;99426.47;;;9.89;59.37
55990;BME280;41875;55.806;38.082;2023-04-29T08:35:14;99439.66;;;9.55;65.01
55990;BME280;41875;55.806;38.082;2023-04-29T08:37:42;99443.41;;;9.97;63.05
55990;BME280;41875;55.806;38.082;2023-04-29T08:40:11;99451.22;;;9.54;64.15
55990;BME280;41875;55.806;38.082;2023-04-29T08:42:40;99438.13;;;10.82;61.32
55990;BME280;41875;55.806;38.082;2023-04-29T08:45:13;99438.03;;;11.25;62.31
55990;BME280;41875;55.806;38.082;2023-04-29T08:47:42;99455.16;;;10.37;63.80
55990;BME280;41875;55.806;38.082;2023-04-29T08:50:11;99440.59;;;9.72;58.98
55990;BME280;41875;55.806;38.082;2023-04-29T08:52:41;99430.88;;;10.42;63.25
55990;BME280;41875;55.806;38.082;2023-04-29T08:55:11;99451.22;;;11.01;60.86
55990;BME280;41875;55.806;38.082;2023-04-29T08:57:40;99459.22;;;10.23;60.95
55990;BME280;41875;55.806;38.082;2023-04-29T09:00:10;99464.22;;;10.61;60.01
55990;BME280;41875;55.806;38.082;2023-04-29T09:02:40;99470.78;;;9.87;64.20
55990;BME280;41875;55.806;38.082;2023-04-29T09:05:10;99478.69;;;10.75;61.68
55990;BME280;41875;55.806;38.082;2023-04-29T09:07:39;99479.47;;;10.59;63.75
55990;BME280;41875;55.806;38.082;2023-04-29T09:10:11;99480.66;;;10.73;63.14
55990;BME280;41875;55.806;38.082;2023-04-29T09:12:40;99471.44;;;11.02;59.79
55990;BME280;41875;55.806;38.082;2023-04-29T09:15:09;99468.66;;;11.53;60.82
55990;BME280;41875;55.806;38.082;2023-04-29T09:17:38;99464.97;;;10.96;59.34
55990;BME280;41875;55.806;38.082;2023-04-29T09:22:54;99491.16;;;10.21;61.82
55990;BME280;41875;55.806;38.082;2023-04-29T09:25:26;99471.16;;;10.19;58.73
55990;BME280;41875;55.806;38.082;2023-04-29T09:27:56;99488.47;;;10.82;60.36
55990;BME280;41875;55.806;38.082;2023-04-29T09:30:25;99485.41;;;11.28;57.89
55990;BME280;41875;55.806;38.082;2023-04-29T09:33:03;99485.75;;;12.00;57.09
55990;BME280;41875;55.806;38.082;2023-04-29T09:35:31;99473.66;;;11.48;54.32
55990;BME280;41875;55.806;38.082;2023-04-29T09:38:09;99479.94;;;11.55;54.67
55990;BME280;41875;55.806;38.082;2023-04-29T09:40:39;99490.56;;;11.71;55.54
55990;BME280;41875;55.806;38.082;2023-04-29T09:43:23;99485.22;;;11.88;53.29
55990;BME280;41875;55.806;38.082;2023-04-29T09:45:52;99500.81;;;11.25;55.95
55990;BME280;41875;55.806;38.082;2023-04-29T09:48:22;99494.03;;;11.22;51.13
55990;BME280;41875;55.806;38.082;2023-04-29T09:51:00;99494.88;;;11.72;54.55
55990;BME280;41875;55.806;38.082;2023-04-29T09:53:29;99502.84;;;10.72;56.49
55990;BME280;41875;55.806;38.082;2023-04-29T09:56:00;99508.59;;;10.59;54.10
55990;BME280;41875;55.806;38.082;2023-04-29T09:58:29;99509.72;;;10.56;56.46
55990;BME280;41875;55.806;38.082;2023-04-29T10:01:00;99508.47;;;11.44;54.08
55990;BME280;41875;55.806;38.082;2023-04-29T10:03:31;99500.69;;;12.01;51.85
55990;BME280;41875;55.806;38.082;2023-04-29T10:06:00;99511.75;;;11.13;52.99
55990;BME280;41875;55.806;38.082;2023-04-29T10:08:29;99514.59;;;10.69;53.31
55990;BME280;41875;55.806;38.082;2023-04-29T10:10:58;99519.16;;;11.02;54.32
55990;BME280;41875;55.806;38.082;2023-04-29T10:13:29;99526.88;;;11.46;52.51
55990;BME280;41875;55.806;38.082;2023-04-29T10:15:59;99514.41;;;12.21;49.78
55990;BME280;41875;55.806;38.082;2023-04-29T10:18:34;99513.66;;;12.52;48.75
55990;BME280;41875;55.806;38.082;2023-04-29T10:21:04;99522.22;;;12.14;46.37
55990;BME280;41875;55.806;38.082;2023-04-29T10:23:33;99518.13;;;12.52;47.70
55990;BME280;41875;55.806;38.082;2023-04-29T10:26:04;99514.56;;;12.28;48.17
55990;BME280;41875;55.806;38.082;2023-04-29T10:28:46;99532.53;;;12.09;48.23
55990;BME280;41875;55.806;38.082;2023-04-29T10:31:15;99525.56;;;12.00;48.53
55990;BME280;41875;55.806;38.082;2023-04-29T10:33:57;99524.22;;;11.63;48.05
55990;BME280;41875;55.806;38.082;2023-04-29T10:36:27;99535.13;;;11.43;47.52
55990;BME280;41875;55.806;38.082;2023-04-29T10:38:58;99535.16;;;12.09;46.81
55990;BME280;41875;55.806;38.082;2023-04-29T10:41:28;99519.50;;;12.39;42.35
55990;BME280;41875;55.806;38.082;2023-04-29T10:44:11;99543.44;;;12.23;44.46
55990;BME280;41875;55.806;38.082;2023-04-29T10:46:40;99554.91;;;11.73;43.79
55990;BME280;41875;55.806;38.082;2023-04-29T10:49:08;99538.25;;;12.54;41.72
55990;BME280;41875;55.806;38.082;2023-04-29T10:51:39;99540.16;;;12.04;46.13
55990;BME280;41875;55.806;38.082;2023-04-29T10:54:08;99554.56;;;12.83;41.15
55990;BME280;41875;55.806;38.082;2023-04-29T10:56:38;99558.44;;;13.43;41.72
55990;BME280;41875;55.806;38.082;2023-04-29T10:59:08;99557.59;;;13.43;41.41
55990;BME280;41875;55.806;38.082;2023-04-29T11:01:42;99560.97;;;13.83;41.51
55990;BME280;41875;55.806;38.082;2023-04-29T11:04:11;99556.03;;;13.71;41.98
55990;BME280;41875;55.806;38.082;2023-04-29T11:06:41;99549.47;;;13.36;41.66
55990;BME280;41875;55.806;38.082;2023-04-29T11:09:10;99555.94;;;13.10;44.85
55990;BME280;41875;55.806;38.082;2023-04-29T11:11:44;99548.63;;;13.04;43.69
55990;BME280;41875;55.806;38.082;2023-04-29T11:14:13;99562.34;;;13.55;40.44
55990;BME280;41875;55.806;38.082;2023-04-29T11:16:50;99546.50;;;12.59;44.37
55990;BME280;41875;55.806;38.082;2023-04-29T11:19:19;99558.44;;;13.43;42.99
55990;BME280;41875;55.806;38.082;2023-04-29T11:21:47;99570.94;;;13.34;41.16
55990;BME280;41875;55.806;38.082;2023-04-29T11:24:15;99561.44;;;12.60;42.56
55990;BME280;41875;55.806;38.082;2023-04-29T11:26:45;99571.28;;;12.52;41.42
55990;BME280;41875;55.806;38.082;2023-04-29T11:29:14;99559.00;;;12.90;41.54
55990;BME280;41875;55.806;38.082;2023-04-29T11:31:45;99558.28;;;13.05;40.71
55990;BME280;41875;55.806;38.082;2023-04-29T11:34:15;99552.84;;;13.30;41.23
55990;BME280;41875;55.806;38.082;2023-04-29T11:36:43;99573.41;;;13.04;41.08
55990;BME280;41875;55.806;38.082;2023-04-29T11:39:13;99554.09;;;12.71;40.31
55990;BME280;41875;55.806;38.082;2023-04-29T11:41:43;99557.72;;;13.18;40.54
55990;BME280;41875;55.806;38.082;2023-04-29T11:44:12;99570.00;;;13.50;40.91
55990;BME280;41875;55.806;38.082;2023-04-29T11:46:40;99555.94;;;13.41;39.95
55990;BME280;41875;55.806;38.082;2023-04-29T11:49:08;99573.13;;;13.54;39.98
55990;BME280;41875;55.806;38.082;2023-04-29T11:51:38;99574.88;;;13.15;40.48
55990;BME280;41875;55.806;38.082;2023-04-29T11:54:06;99565.66;;;12.94;40.89
55990;BME280;41875;55.806;38.082;2023-04-29T11:56:36;99549.09;;;13.16;40.48
55990;BME280;41875;55.806;38.082;2023-04-29T11:59:04;99551.00;;;12.59;42.06
55990;BME280;41875;55.806;38.082;2023-04-29T12:01:34;99550.47;;;13.03;40.88
55990;BME280;41875;55.806;38.082;2023-04-29T12:04:03;99549.34;;;12.49;42.61
55990;BME280;41875;55.806;38.082;2023-04-29T12:06:33;99549.72;;;12.38;42.79
55990;BME280;41875;55.806;38.082;2023-04-29T12:09:02;99547.22;;;12.93;41.33
55990;BME280;41875;55.806;38.082;2023-04-29T12:11:30;99538.44;;;13.16;42.61
55990;BME280;41875;55.806;38.082;2023-04-29T12:13:59;99549.72;;;13.49;39.24
55990;BME280;41875;55.806;38.082;2023-04-29T12:16:29;99544.03;;;12.58;39.80
55990;BME280;41875;55.806;38.082;2023-04-29T12:18:58;99549.00;;;13.01;39.62
55990;BME280;41875;55.806;38.082;2023-04-29T12:21:27;99557.44;;;13.67;39.17
55990;BME280;41875;55.806;38.082;2023-04-29T12:23:57;99549.16;;;14.00;36.42
55990;BME280;41875;55.806;38.082;2023-04-29T12:26:28;99557.34;;;13.76;36.35
55990;BME280;41875;55.806;38.082;2023-04-29T12:28:57;99549.38;;;13.52;38.95
55990;BME280;41875;55.806;38.082;2023-04-29T12:31:31;99549.75;;;13.18;38.46
55990;BME280;41875;55.806;38.082;2023-04-29T12:34:02;99553.94;;;13.67;38.73
55990;BME280;41875;55.806;38.082;2023-04-29T12:36:34;99537.72;;;12.99;37.53
55990;BME280;41875;55.806;38.082;2023-04-29T12:39:04;99554.03;;;13.50;36.69
55990;BME280;41875;55.806;38.082;2023-04-29T12:41:39;99558.31;;;13.28;38.67
55990;BME280;41875;55.806;38.082;2023-04-29T12:44:07;99562.19;;;12.38;38.86
55990;BME280;41875;55.806;38.082;2023-04-29T12:46:38;99563.91;;;12.70;39.69
55990;BME280;41875;55.806;38.082;2023-04-29T12:49:06;99554.16;;;12.94;38.28
55990;BME280;41875;55.806;38.082;2023-04-29T12:51:35;99561.78;;;13.60;38.17
55990;BME280;41875;55.806;38.082;2023-04-29T12:54:03;99550.91;;;13.47;39.24
55990;BME280;41875;55.806;38.082;2023-04-29T12:56:33;99555.47;;;13.61;37.84
55990;BME280;41875;55.806;38.082;2023-04-29T12:59:06;99551.56;;;13.17;37.69
55990;BME280;41875;55.806;38.082;2023-04-29T13:01:34;99541.25;;;13.92;34.97
55990;BME280;41875;55.806;38.082;2023-04-29T13:04:02;99543.56;;;13.95;35.24
55990;BME280;41875;55.806;38.082;2023-04-29T13:06:34;99550.31;;;14.36;36.94
55990;BME280;41875;55.806;38.082;2023-04-29T13:09:05;99535.91;;;13.92;35.93
55990;BME280;41875;55.806;38.082;2023-04-29T13:11:44;99538.69;;;13.61;38.51
55990;BME280;41875;55.806;38.082;2023-04-29T13:14:16;99549.94;;;13.39;38.26
55990;BME280;41875;55.806;38.082;2023-04-29T13:16:44;99543.47;;;14.03;38.34
55990;BME280;41875;55.806;38.082;2023-04-29T13:19:12;99529.16;;;13.43;35.26